Beranda Manga Series Dolly Kill Kill Manga

Dolly Kill Kill Manga

bola3m

dolly kill kill 194x300 Dolly Kill Kill MangaHari-hari kedamaian umat manusia seketika berubah menjadi neraka.
Invasi mendadak serangga seperti tawon, bersama dengan raksasa “boneka” memegang senjata alien besar mereka, memusnahkan semua orang yang menghalangi jalan mereka.
Di tengah kekacauan, siswa kelas 1 SMP, Iruma Ikaruga, berjuang untuk menyelamatkan sahabatnya dan senpai tercinta dari serangan boneka ‘dengan semangat pantang menyerah. Namun, semua yang menantinya adalah keputusasaan.

TitleDate
One Piece 958 – Pelabuhan yang Dijanjikan2019/10/052019-10-05 07:12:40
One Piece 957 – Terkuat2019/09/302019-09-30 02:20:25
One Piece 956 – Berita Besar2019/09/302019-09-30 01:49:26
One Piece 955 – Enma2019/09/292019-09-29 21:16:32
One Piece 954 – Seperti Memberi Sayap pada Naga2019/09/292019-09-29 19:43:40
One Piece 953 – Seekor Rubah yang Menyamar2019/09/292019-09-29 09:37:05
One Piece 952 – Hiyori dan Kawamatsu2019/09/292019-09-29 09:14:59
Mainkan Roullete Live Casino Dengan Cara Ini2019/08/122019-08-12 15:54:05
One Piece 951 – Mengamuk2019/08/032019-08-03 12:18:44
One Piece 950 – Mimpi Para Prajurit2019/07/282019-07-28 10:06:01
One Piece 949 – Mumi2019/07/242019-07-24 15:45:07
One Piece 948 – Kawamatsu the Kappa2019/07/082019-07-08 16:18:27
Bingung Cari Agen Judi Kartu Online Terbaik? Langsung Bergabung Bersama Agen Dewapokerqq2019/07/012019-07-01 15:46:47
Pembahasan One Piece 947: Memori Big Mom Akhirnya Kembali?!2019/07/012019-07-01 11:11:04
One Piece 947 – Pertaruhan Queen2019/06/292019-06-29 13:08:56
Pembahasan One Piece 946: Luffy Versus Big Mom (Lagi)!!2019/06/242019-06-24 10:57:06
One Piece 946 – Queen vs O-Lin2019/06/242019-06-24 08:37:56
One Piece Episode – 8892019/06/162019-06-16 11:48:09
Boruto Episode – 1102019/06/152019-06-15 00:05:49
One Piece Episode – 8882019/06/142019-06-14 22:28:17
One Piece Episode – 8872019/06/142019-06-14 22:27:35
Boruto 035 – Terserah Padamu Bagian 22019/06/132019-06-13 17:05:13
Boruto 035 – Terserah Padamu2019/06/132019-06-13 16:54:37
Boruto Episode – 1092019/06/102019-06-10 21:16:27
Pembahasan One Piece 945: Big Mom Hadir di Tambang Penjara Kaido!2019/06/092019-06-09 09:06:15
One Piece 945 – O-Lin2019/06/082019-06-08 09:25:29
One Punch-Man – 0342019/06/082019-06-08 08:50:44
One Punch-Man – 0332019/06/082019-06-08 08:49:53
One Punch-Man – 32 Serangan Balasan2019/06/082019-06-08 08:46:10
One Punch-Man – 031 Dari Luar Angkasa (Bagian 2)2019/06/082019-06-08 08:45:02
One Punch-Man – 031 Dari Luar Angkasa (Bagian 1)2019/06/062019-06-06 12:36:14
One Punch-Man – 30 Ramalan Terbesar2019/06/062019-06-06 12:29:15
One Punch-Man – 029 Kelas S2019/06/042019-06-04 20:28:27
One Punch-Man – 029 Kelas S2019/06/042019-06-04 15:00:18
One Punch-Man – 028 Kelas B2019/06/042019-06-04 14:55:13
One Punch-Man – 027 Sebab Sedang Hujan2019/06/042019-06-04 14:52:37
One Punch-Man – 026 Kalah Namun Bersinar2019/06/042019-06-04 14:50:50
One Punch-Man – 025 Secercah Harapan (Bagian 2)2019/06/042019-06-04 14:47:20
One Punch-Man – 025 Secercah Harapan (Bagian 1)2019/06/042019-06-04 14:41:12
One Punch-Man – 024 Raja Lautan (Bagian 2)2019/06/042019-06-04 14:37:17
One Punch-Man – 024 Raja Lautan (Bagian 1)2019/06/042019-06-04 14:35:51
One Punch-Man – 023 Ancaman Dari Laut (Bagian 2)2019/06/042019-06-04 13:40:54
One Punch-Man – 023 Ancaman Dari Laut (Bagian 1)2019/06/042019-06-04 11:38:37
One Punch-Man – 022 Suara2019/06/042019-06-04 11:35:36
One Punch-Man – 021 Meteor Raksasa (Bagian 4)2019/06/042019-06-04 11:16:12
One Punch-Man – 021 Meteor Raksasa (Bagian 3)2019/06/042019-06-04 11:15:30
One Punch-Man – 021 Meteor Raksasa (Bagian 2)2019/06/042019-06-04 11:13:19
One Punch-Man – 021 Meteor Raksasa (Bagian 1)2019/06/042019-06-04 10:48:55
Battle Through The Heavens – 2532019/06/042019-06-04 10:43:40
Battle Through The Heavens – 2522019/06/042019-06-04 10:42:41
Battle Through The Heavens – 2512019/06/042019-06-04 10:41:17
Pembahasan One Piece 944: Duel Zoro Versus Kyoshiro?!2019/06/012019-06-01 11:42:16
One Piece 944 – Partner2019/06/012019-06-01 11:10:40
Eden’s Zero – 046 Jejak Valkyrie2019/05/302019-05-30 10:57:04
Eden’s Zero – 045 Stadion Tempur Mildian2019/05/302019-05-30 10:56:14
Eden’s Zero – 044 Istana Pengetahuan2019/05/302019-05-30 10:40:32
Eden’s Zero – 043 Aroma Uang2019/05/302019-05-30 10:31:05
Boruto Episode – 1082019/05/272019-05-27 10:00:44
One Piece Episode – 8862019/05/272019-05-27 10:00:34
Pembahasan One Piece 943: Ternyata Ini Asal-Usul Nama Buah SMILE2019/05/252019-05-25 10:48:52
One Piece 943 – SMILE2019/05/252019-05-25 10:28:44
Boruto Episode – 1072019/05/202019-05-20 10:54:01
One Piece Episode – 8852019/05/202019-05-20 10:48:26
One Piece Episode – 8842019/05/122019-05-12 15:56:39
Pembahasan One Piece 942: Pengorbanan Mengharukan Yasu!2019/05/122019-05-12 13:13:35
Boruto Episode – 1062019/05/122019-05-12 11:09:26
One Piece 942 – Daimyo Hakumai, Shimotsuki Yasuie2019/05/102019-05-10 14:18:27
One Piece Episode – 8832019/05/062019-05-06 13:24:02
Boruto Episode – 1052019/05/062019-05-06 13:21:22
Battle Through The Heavens – 2502019/04/302019-04-30 14:53:57
Battle Through The Heavens – 2492019/04/302019-04-30 14:53:11
Battle Through The Heavens – 2482019/04/302019-04-30 14:52:30
Battle Through The Heavens – 2472019/04/302019-04-30 14:51:10
Battle Through The Heavens – 2462019/04/302019-04-30 14:48:23
One Piece Episode – 8822019/04/282019-04-28 23:25:43
Boruto Episode – 1042019/04/282019-04-28 23:21:31
Eden’s Zero – 042 – Impian Pino2019/04/282019-04-28 09:55:10
Eden’s Zero – 041 – Kembang Api2019/04/282019-04-28 09:54:01
Eden’s Zero – 040 – Rencana C72019/04/282019-04-28 09:52:47
Eden’s Zero – 039 – Laba-Laba Hacker Jenius2019/04/282019-04-28 09:50:32
Bleach 669 – Blade II2019/04/272019-04-27 18:06:26
Bleach 668 – BIGGER,FASTER,STRONGER2019/04/272019-04-27 18:05:24
Bleach 667 – BIGGER, LOUDER, STRONGER2019/04/272019-04-27 18:04:40
Bleach 666 – Karappo2019/04/272019-04-27 18:03:47
Bleach 665 – The Princess Dissection2019/04/272019-04-27 18:00:57
Bleach 664 – The Gift2019/04/272019-04-27 18:00:04
Bleach 663 – God of Thunder 42019/04/272019-04-27 17:59:40
Bleach 662 – God of Thunder 32019/04/272019-04-27 17:58:58
Bleach 661 – My Last Words2019/04/272019-04-27 17:58:23
Bleach 660 – The Visible Answer2019/04/272019-04-27 17:55:58
Bleach 659 – There Will Be Frost2019/04/272019-04-27 17:55:03
Bleach 658 – Fatal Matters Are Cold2019/04/272019-04-27 17:54:16
Bleach 657 – God of Thunder 22019/04/272019-04-27 17:53:44
Bleach 656 – God of Thunder2019/04/272019-04-27 17:53:21
Bleach 655 – The Miracle2019/04/272019-04-27 17:51:48
Bleach 654 – Deadman Standing2019/04/272019-04-27 17:39:24
Bleach 653 – The Theatre Suicide Scene 72019/04/272019-04-27 17:38:43
Bleach 652 – The Theatre Suicide Scene 62019/04/272019-04-27 17:38:00
Bleach 651 – The Theatre Suicide Scene 52019/04/272019-04-27 17:37:29
Bleach 650 – The Theatre Suicide Scene 42019/04/272019-04-27 17:34:57
Bleach 649 – The Theatre Suicide Scene 32019/04/272019-04-27 17:34:36
Bleach 648 – The Theatre Suicide Scene 22019/04/272019-04-27 17:34:08
Bleach 647 – The Theatre Suicide2019/04/272019-04-27 17:33:54
Bleach 646 – The Second Eye2019/04/272019-04-27 17:32:53
Bleach 645 – Don’t Chase a Shadow2019/04/272019-04-27 17:31:36
Bleach 644 – BABY,HOLD YOUR HAND 72019/04/272019-04-27 17:31:08
Bleach 643 – BABY,HOLD YOUR HAND 62019/04/272019-04-27 17:29:55
Bleach 642 – BABY,HOLD YOUR HAND 52019/04/272019-04-27 17:29:09
Bleach 641 – BABY,HOLD YOUR HAND 42019/04/272019-04-27 17:28:39
Bleach 640 – BABY,HOLD YOUR HAND 32019/04/272019-04-27 15:28:08
Bleach 639 – BABY,HOLD YOUR HAND 22019/04/272019-04-27 15:27:32
Bleach 638 – Seething Malice2019/04/272019-04-27 15:26:51
Bleach 637 – Baby, Hold Your Hand2019/04/272019-04-27 15:25:23
Bleach 636 – Sensitive Monster2019/04/272019-04-27 15:24:37
Bleach 635 – Hooded Enigma2019/04/272019-04-27 15:22:57
Bleach 634 – Friend 42019/04/272019-04-27 15:20:59
Bleach 633 – Friend 32019/04/272019-04-27 15:20:12
Bleach 632 – Friend 22019/04/272019-04-27 15:19:25
Bleach 631 – Friend2019/04/272019-04-27 15:18:25
Bleach 630 – The Twinned Twilight2019/04/272019-04-27 15:15:36
Bleach 629 – Gate of the Sun2019/04/272019-04-27 15:15:15
Bleach 628 – New World Orders2019/04/272019-04-27 15:13:20
Bleach 627 – The Creation2019/04/272019-04-27 15:12:26
Bleach 626 – THE HOLY NEWBORN2019/04/272019-04-27 15:11:54
Bleach 625 – LIVING JAGUAR2019/04/272019-04-27 15:10:40
Bleach 624 – THE FANG2019/04/272019-04-27 15:10:07
Bleach 623 – Against The Judgement2019/04/272019-04-27 15:09:38
Bleach 622 – The Agony2019/04/272019-04-27 15:09:12
Bleach 621 – THE DARK CURTAIN2019/04/272019-04-27 15:08:46
Bleach 620 – Where Do You Stand2019/04/272019-04-27 15:05:04
Bleach 619 – The Betrayer2019/04/272019-04-27 15:04:23
Bleach 618 – The Dark Arm2019/04/272019-04-27 15:03:55
Bleach 617 – Return of the God2019/04/272019-04-27 15:03:26
Bleach 616 – Mimihagi2019/04/272019-04-27 15:02:48
Bleach 615 – All is Lost2019/04/272019-04-27 15:01:04
Bleach 614 – KILL THE KING2019/04/272019-04-27 15:00:55
Bleach 613 – The Ordinary Peace2019/04/272019-04-27 15:00:44
Bleach 612 – DIRTY2019/04/272019-04-27 15:00:33
Bleach 611 – The Soul King Dies2019/04/272019-04-27 14:58:32
Bleach 610 – Mausoleum of Skulls2019/04/272019-04-27 14:56:48
Bleach 609 – “A”2019/04/272019-04-27 14:55:15
Bleach 608 – Darker than Black2019/04/272019-04-27 14:54:17
Bleach 607 – THE MASTER2019/04/272019-04-27 14:53:52
Bleach 606 – Divine Division2019/04/272019-04-27 14:51:24
Bleach 605 – Don’t Call My Name2019/04/272019-04-27 14:45:06
Bleach 604 – REVITALIZE2019/04/272019-04-27 14:44:26
Bleach 603 – What The Hell2019/04/272019-04-27 14:43:32
Bleach 602 – Bane Licking Good2019/04/272019-04-27 14:42:45
Bleach 601 – VERGE ON VERMILLION2019/04/272019-04-27 14:42:14
Bleach 600 – SNIPE2019/04/272019-04-27 12:49:04
Bleach 599 – Too Early To Win, Too Late To Know2019/04/272019-04-27 12:48:36
Bleach 598 – The Shooting Star Project2019/04/272019-04-27 12:47:36
Bleach 597 – Winded by the Shadow2019/04/272019-04-27 12:44:10
Bleach 596 – Rubb-Dolls 32019/04/272019-04-27 12:43:48
Bleach 595 – Rubb-Dolls 22019/04/272019-04-27 12:40:56
Bleach 594 – Rubb-Dolls2019/04/272019-04-27 12:38:37
Bleach 593 – Marching Out The ZOMBIES 42019/04/272019-04-27 12:37:51
Bleach 592 – Marching Out The ZOMBIES 32019/04/272019-04-27 12:35:49
Bleach 591 – Marching Out The ZOMBIES 22019/04/272019-04-27 12:34:41
Bleach 590 – Marching Out the ZOMBIES2019/04/272019-04-27 01:22:05
Bleach 589 – The Shooting Star Project [The Old and New Trust]2019/04/272019-04-27 01:21:49
Bleach 588 – The Headless Star 72019/04/272019-04-27 01:20:52
Bleach 587 – The Headless Star 62019/04/272019-04-27 00:51:52
Bleach 586 – The Headless Star 52019/04/272019-04-27 00:36:22
Bleach 585 – The Headless Star 42019/04/272019-04-27 00:16:56
Bleach 584 – THE HEADLESS STAR 32019/04/272019-04-27 00:16:49
Bleach 583 – The Headless Star 22019/04/272019-04-27 00:16:40
Bleach 582 – The Headless Star2019/04/272019-04-27 00:16:33
Bleach 581 – THE HERO 22019/04/272019-04-27 00:16:28
Bleach 580 – THE LIGHT2019/04/262019-04-26 23:05:15
Bleach 579 – THE UNDEAD 62019/04/262019-04-26 23:04:31
Bleach 578 – THE UNDEAD 52019/04/262019-04-26 22:48:50
Bleach 577 – The Death2019/04/262019-04-26 22:47:09
Bleach 576 – THE KILLERS HIGH 22019/04/262019-04-26 22:45:59
Bleach 575 – THE KILLERS HIGH2019/04/262019-04-26 22:14:49
Bleach 574 – DEATH IN VISION2019/04/262019-04-26 22:14:24
Bleach 573 – I AM THE EDGE2019/04/262019-04-26 22:13:04
Bleach 572 – The Blaster2019/04/262019-04-26 22:12:29
Bleach 571 – a Devilish Perspective2019/04/262019-04-26 22:11:56
Bleach 570 – Closer, Closer2019/04/262019-04-26 22:07:54
Bleach 569 – The White Haze2019/04/262019-04-26 22:06:58
Bleach 568 – Hear – Fear – Here 22019/04/262019-04-26 22:06:34
Bleach 567 – Dance With Snowwhite2019/04/262019-04-26 22:03:56
Bleach 566 – What is Your Fear?2019/04/262019-04-26 22:03:11
Bleach 565 – God Like You2019/04/262019-04-26 21:53:54
Bleach 564 – Red Bristled Kings2019/04/262019-04-26 21:51:46
Bleach 563 – SUPERSTAR NEVER DIE2019/04/262019-04-26 21:50:52
Bleach 562 – THE VILLAIN 22019/04/262019-04-26 21:49:11
Bleach 561 – THE VILLAIN2019/04/262019-04-26 21:26:30
Bleach 560 – Rages at Ringside2019/04/262019-04-26 21:23:18
Bleach 559 – THE NIGHT RIGHT2019/04/262019-04-26 21:22:58
Bleach 558 – Wolfsbane 32019/04/262019-04-26 20:57:43
Bleach 557 – Wolfsbane 22019/04/262019-04-26 20:55:07
Bleach 556 – The Wolfsbane2019/04/262019-04-26 20:35:17
Pembahasan One Piece 941: Seorang Sekutu Topi Jerami Terancam Dieksekusi2019/04/262019-04-26 19:54:12
One Piece 941 – Orang Paling Dicintai di Kota Ebisu2019/04/262019-04-26 15:34:40
Bleach 555 – The Hero2019/04/252019-04-25 23:02:38
Bleach 554 – Desperate Lights2019/04/252019-04-25 22:43:53
Bleach 553 – Frozen Cross2019/04/252019-04-25 22:42:15
Bleach 552 – The Fundamental Virulence2019/04/252019-04-25 22:41:41
Bleach 551 – The Burnt Offerings2019/04/252019-04-25 22:40:45
Bleach 550 – Blazing Bullets2019/04/252019-04-25 22:39:12
Bleach 549 – The Stormbringer2019/04/252019-04-25 21:53:40
Bleach 548 – The Thin Ice2019/04/252019-04-25 21:51:38
Bleach 547 – Peace From Shadows2019/04/252019-04-25 21:12:37
Bleach 546 – The Last 9Days2019/04/252019-04-25 21:12:06
Bleach 545 – Blue Stripes2019/04/252019-04-25 14:58:13
Bleach 544 – Walking With Watchers2019/04/252019-04-25 14:57:24
Bleach 543 – Letters2019/04/252019-04-25 14:56:56
Bleach 542 – The Blade Is Me2019/04/252019-04-25 14:56:25
Bleach 541 – The Blade and Me 22019/04/252019-04-25 14:55:03
Bleach 540 – The Sword Five2019/04/242019-04-24 23:37:00
Bleach 539 – Prob-less, Progress2019/04/242019-04-24 23:13:39
Bleach 538 – Standing on the Edge2019/04/242019-04-24 23:13:03
Bleach 537 – Everything But the Rain op.10 “Prinz Von Licht”2019/04/242019-04-24 23:12:37
Bleach 536 – Everything But the Rain op.9 “June Truth”2019/04/242019-04-24 23:12:06
Bleach 535 – Everything But the Rain op.8 “Defenders”2019/04/242019-04-24 21:50:21
Bleach 534 – Everything But the Rain op.7 “Hole of Reproach”2019/04/242019-04-24 21:48:22
Bleach 533 – Everything But the Rain op.6 “The Gravitation”2019/04/242019-04-24 21:48:06
Bleach 532 – Everything But the Rain op.5 “The White Noise”2019/04/242019-04-24 21:47:28
Bleach 531 – Everything But the Rain op.4 “Dark of the Bleeding Moon”2019/04/242019-04-24 21:47:11
Bleach 530 – Everything But the Rain op.3 “Dark of the Moon”2019/04/242019-04-24 18:02:58
Bleach 529 – Everything But the Rain op.2 “The Judgements”2019/04/242019-04-24 17:44:21
Bleach 528 – Everything But the Rain2019/04/242019-04-24 17:34:08
Bleach 527 – Eliminate From Heaven2019/04/242019-04-24 17:33:27
Bleach 526 – The Battle2019/04/242019-04-24 17:32:47
Bleach 525 – Edges2019/04/242019-04-24 17:26:52
Bleach 524 – The Drop2019/04/242019-04-24 17:26:36
Bleach 523 – Swords of Origin2019/04/242019-04-24 17:26:20
Bleach 522 – Love It2019/04/242019-04-24 17:25:16
Bleach 521 – A Piggy Party2019/04/242019-04-24 17:24:57
Bleach 520 – Killers Not Dead2019/04/242019-04-24 17:20:21
Bleach 519 – Hot,Hot,Heat2019/04/242019-04-24 17:20:04
Bleach 518 – The Shooting Star Project (Zero Mix)2019/04/242019-04-24 17:19:51
Bleach 517 – The Stairway to Heaven2019/04/242019-04-24 17:14:45
Bleach 516 – The Squad Zero2019/04/242019-04-24 17:09:40
Bleach 515 – Relics2019/04/242019-04-24 16:55:32
Bleach 514 – Born in the Dark2019/04/242019-04-24 16:55:19
Bleach 513 – The Dark Moon Stroke2019/04/242019-04-24 16:55:03
Bleach 512 – The Stand Ablaze2019/04/242019-04-24 16:52:41
Bleach 511 – Die Standing2019/04/242019-04-24 16:52:24
Bleach 510 – The Extinction2019/04/242019-04-24 16:50:06
Bleach 509 – Tenchi Kaijin2019/04/242019-04-24 16:49:52
Bleach 508 – Like a Raging Fire2019/04/242019-04-24 15:44:46
Bleach 507 – The Fire 32019/04/242019-04-24 15:44:04
Bleach 506 – The Fire 22019/04/242019-04-24 15:43:34
Bleach 505 – The Fire2019/04/242019-04-24 15:38:51
Bleach 504 – Before The Shadows2019/04/242019-04-24 15:30:43
Bleach 503 – Wrath as Lightning2019/04/242019-04-24 15:26:13
Bleach 502 – Falling Soul2019/04/242019-04-24 15:25:39
Bleach 501 – Here Fear2019/04/242019-04-24 15:24:48
Bleach 500 – Rescuer in The Deep Dark2019/04/242019-04-24 15:22:49
Bleach 499 – Rescuer in the Dark2019/04/242019-04-24 14:01:53
Bleach 498 – The Black Rescuer2019/04/242019-04-24 14:00:53
Bleach 497 – Kill the Shadow 22019/04/242019-04-24 13:59:51
Bleach 496 – Kill the Shadow2019/04/242019-04-24 13:59:26
Bleach 495 – Bleeding2019/04/232019-04-23 14:55:45
Bleach 494 – Bab Penutup part 12019/04/232019-04-23 14:44:44
Bleach 493 – Light of Happiness2019/04/232019-04-23 14:32:03
Bleach 492 – Balancer Justice2019/04/232019-04-23 14:15:04
Bleach 491 – Toten Engel2019/04/232019-04-23 14:10:28
Bleach 490 – March of The Starcross 22019/04/232019-04-23 14:06:56
Bleach 489 – March of The Starcross2019/04/232019-04-23 13:54:25
Bleach 488 – Bond Behind Blast2019/04/232019-04-23 13:51:32
Bleach 487 – Bernapas Tapi Buta2019/04/232019-04-23 13:49:10
Bleach 486 – The Crimson Cremation2019/04/232019-04-23 13:46:40
Bleach 485 – Foundation Stones2019/04/222019-04-22 10:37:20
Bleach 484 – Buckbeard2019/04/222019-04-22 06:53:40
Bleach 483 – KriegsErklarung2019/04/222019-04-22 06:48:39
Bleach 482 – Bad Recognition2019/04/222019-04-22 00:10:30
Bleach 481 – The Tearing2019/04/222019-04-22 00:03:57
Boruto Episode – 1032019/04/212019-04-21 23:40:03
One Piece Episode – 8812019/04/212019-04-21 21:08:47
Bleach 480 – The Thousand Year2019/04/212019-04-21 03:23:05
Bleach 479 – Goodbye2019/04/212019-04-21 03:23:01
Bleach 478 – Lost 32019/04/212019-04-21 03:13:25
Bleach 477 – Lost 22019/04/212019-04-21 02:04:08
Bleach 476 – Lost2019/04/212019-04-21 01:38:30
Bleach 475 – Shades of the Bond2019/04/202019-04-20 20:29:40
Bleach 474 – Believe2019/04/202019-04-20 19:38:04
Bleach 473 – Enemies in The Dark2019/04/202019-04-20 19:35:32
Bleach 472 – Razoredge Requiem2019/04/202019-04-20 19:32:20
Bleach 471 – Pray for Predators 22019/04/202019-04-20 19:29:15
Bleach 470 – Pray for Predators2019/04/202019-04-20 19:27:10
Bleach 469 – Rag Lag Rumble2019/04/202019-04-20 19:25:28
Bleach 468 – Raid as Blade2019/04/202019-04-20 19:22:13
Bleach 467 – Luck Men2019/04/202019-04-20 19:18:38
Bleach 466 – Screaming Invader2019/04/202019-04-20 19:15:45
Pembahasan One Piece 940: Big Mom Semakin Dekat ke Penjara Luffy2019/04/202019-04-20 17:32:59
One Piece 940 – Seruan Pemberontakan2019/04/192019-04-19 16:39:21
Bleach 465 – Bad Blood2019/04/192019-04-19 16:27:27
Bleach 464 – Quiet Chamber2019/04/192019-04-19 16:23:58
Bleach 463 – Extreme Sad2019/04/192019-04-19 16:23:10
Bleach 462 – Why Me Sad2019/04/192019-04-19 16:19:23
Bleach 461 – Come Around Our Turn2019/04/192019-04-19 16:14:35
Bleach 460 – Deathberry Return 22019/04/192019-04-19 16:10:47
Bleach 459 – Death and Strawberry 22019/04/192019-04-19 13:26:37
Bleach 458 – End of All Bond2019/04/192019-04-19 13:21:57
Bleach 457 – End of The Bond 32019/04/192019-04-19 13:20:09
Bleach 456 – End of The Bond 22019/04/192019-04-19 13:18:16
Bleach 455 – End of Bond 12019/04/192019-04-19 11:28:52
Bleach 454 – Sheathebreaker2019/04/192019-04-19 11:28:32
Bleach 453 – Mute Your Breath2019/04/192019-04-19 11:28:00
Bleach 452 – Erosion2019/04/192019-04-19 11:24:57
Bleach 451 – Welcome to Our Execution 42019/04/192019-04-19 11:24:13
Bleach 450 – Blind Solitude2019/04/192019-04-19 11:17:54
Bleach 449 – Not be a Drug2019/04/192019-04-19 11:17:31
Bleach 448 – Loading to Lie2019/04/192019-04-19 11:15:46
Bleach 447 – Load2019/04/192019-04-19 11:12:08
Bleach 446 – Dark Beat 22019/04/192019-04-19 11:11:20
Bleach 445 – Dark Beat2019/04/192019-04-19 11:09:00
Bleach 444 – The Rising2019/04/192019-04-19 11:07:15
Bleach 443 – Sepatu Kotor Berbahaya2019/04/192019-04-19 11:05:39
Bleach 442 – Battlefield2019/04/192019-04-19 11:02:13
Bleach 441 – Spotlight Broken2019/04/192019-04-19 10:59:09
Bleach 440 – Mute Friends2019/04/192019-04-19 10:16:29
Bleach 439 – Keen Marker2019/04/192019-04-19 10:13:44
Bleach 438 – Knuckle Down2019/04/192019-04-19 10:13:04
Bleach 437 – Swastika Break2019/04/192019-04-19 10:09:12
Bleach 436 – The Time Discipline2019/04/192019-04-19 10:06:17
Bleach 435 – Kepanikan dalam Rumah Boneka2019/04/192019-04-19 10:02:26
Bleach 434 – Berry in The Box2019/04/192019-04-19 09:55:33
Bleach 433 – The Six Fullbringer2019/04/192019-04-19 09:31:13
Bleach 432 – The Soul Pantheism2019/04/182019-04-18 16:40:12
Bleach 431 – Welcome to our EXECUTION 32019/04/182019-04-18 16:40:11
Bleach 430 – Welcome to our EXECUTION 22019/04/182019-04-18 16:28:58
Bleach 429 – Welcome to our EXECUTION2019/04/182019-04-18 16:28:41
Bleach 428 – The Known2019/04/182019-04-18 16:28:04
Bleach 427 – A Delicious Dissonance2019/04/182019-04-18 16:27:07
Bleach 426 – The Starter 22019/04/182019-04-18 16:26:44
Bleach 425 – A Day Without Melodies2019/04/182019-04-18 16:10:30
Bleach 424 – The Lost Agent2019/04/182019-04-18 16:08:59
Bleach 423 – Bleach My Soul2019/04/182019-04-18 16:05:52
Bleach 422 – The silent victory2019/04/182019-04-18 16:05:23
Bleach 421 – DECIDE 232019/04/182019-04-18 15:48:02
Bleach 420 – DECIDE 222019/04/182019-04-18 15:34:14
Bleach 419 – DECIDE 21 (Transcendent God Rock)2019/04/182019-04-18 15:32:28
Bleach 418 – DECIDE 202019/04/182019-04-18 15:30:46
Bleach 417 – DECIDE 192019/04/182019-04-18 15:29:04
Bleach 416 – DECIDE 18 (THE END)2019/04/182019-04-18 15:27:59
Bleach 415 – DECIDE 172019/04/182019-04-18 15:26:43
Bleach 414 – DECIDE 162019/04/182019-04-18 15:25:44
Bleach 413 – Decide 152019/04/182019-04-18 14:36:39
Bleach 412 – Decide 142019/04/182019-04-18 14:33:56
Bleach 411 – Decide 132019/04/182019-04-18 14:26:56
Boruto 034 – Latihan2019/04/172019-04-17 09:25:17
Boruto Episode – 1022019/04/142019-04-14 20:30:12
One Piece Episode – 8802019/04/142019-04-14 18:59:44
Bleach 410 – DECIDE 122019/04/132019-04-13 19:57:02
Bleach 408 – DECIDE 102019/04/132019-04-13 19:42:08
Bleach 409 – DECIDE 112019/04/132019-04-13 10:31:59
Bleach 407 – DECIDE 92019/04/132019-04-13 10:27:37
Bleach 406 – DECIDE 8 end of the Chrysalis Age2019/04/132019-04-13 10:26:41
Bleach 405 – DECIDE 72019/04/132019-04-13 09:29:23
Bleach 404 – DECIDE 62019/04/132019-04-13 09:28:42
Bleach 403 – DECIDE 52019/04/132019-04-13 09:28:14
Bleach 402 – DECIDE 42019/04/132019-04-13 09:00:15
Bleach 401 – DECIDE 32019/04/132019-04-13 08:50:19
Bleach 400 – DECIDE 22019/04/132019-04-13 07:13:02
Bleach 399 – DECIDE2019/04/132019-04-13 07:11:57
Bleach 398 – BACK FROM BLIND2019/04/132019-04-13 07:10:51
Bleach 397 – Edge of the Silence2019/04/132019-04-13 07:10:09
Bleach 396 – THE BITE2019/04/132019-04-13 07:09:33
Bleach 395 – The Burnout Inferno 32019/04/122019-04-12 22:49:11
Bleach 394 – The Burnout Inferno 22019/04/122019-04-12 22:46:15
Bleach 393 – The Burnout Inferno2019/04/122019-04-12 22:44:55
Bleach 392 – The Breaking Glaciers2019/04/122019-04-12 22:34:02
Bleach 391 – The Blazing Glaciers2019/04/122019-04-12 22:12:53
One Piece 939 – Kakek Hyo Tahu Caranya2019/04/122019-04-12 21:27:59
Pembahasan One Piece 939: Kakek Hyo Bisa Busoshoku Haki Level Tinggi?!2019/04/122019-04-12 07:32:37
Boruto 033 – Melewati Batas2019/04/102019-04-10 09:25:13
Bleach 390 – BEYOND THE DEATH UNDERSTANDING2019/04/092019-04-09 16:19:24
Bleach 389 – WINGED EAGLES 22019/04/092019-04-09 16:18:54
Bleach 388: Eagle Without Wings2019/04/092019-04-09 16:10:17
Bleach 387 – Ignited2019/04/092019-04-09 16:09:49
Bleach 386 – Bells Are Blue2019/04/092019-04-09 16:08:38
Bleach 385 – Vice It2019/04/092019-04-09 15:28:01
Bleach 384 – Can’t Fear Your Own Sword2019/04/092019-04-09 15:27:36
Bleach 383 – TOO EARLY TO TRUST2019/04/092019-04-09 15:19:07
Bleach 382 – The United Front 2 (Discordeque Mix)2019/04/092019-04-09 15:17:32
Bleach 381 – Words Just Don’t Like You2019/04/092019-04-09 15:16:56
Bleach 380 – Devil, Devil, Devil, Devil2019/04/092019-04-09 14:52:59
Bleach 379 – Falta de Armonia2019/04/092019-04-09 14:51:39
Bleach 378 – Eyes of the Victor2019/04/092019-04-09 14:45:53
Bleach 377 – Shout at the Dark2019/04/092019-04-09 14:43:54
Bleach 376 – EXecution, EXtinction 22019/04/092019-04-09 14:43:25
Bleach 375 – EXecution, EXtinction2019/04/092019-04-09 14:40:58
Bleach 374 – Gray Wolf, Red Blood, Black Cloth, White Bone2019/04/092019-04-09 12:16:37
Bleach 373 – Wolves Ain’t Howl Alone2019/04/092019-04-09 12:14:06
Bleach 372 – The Metal Cudgel Flinger2019/04/092019-04-09 12:13:03
Bleach 371 – Kingdom of Hollows2019/04/092019-04-09 12:12:32
Bleach 370 – Discussing Life from God’s Perspective2019/04/092019-04-09 11:51:46
Bleach 369 – Spit on Your Own God2019/04/092019-04-09 11:50:47
Bleach 368 – The Fearless Child2019/04/092019-04-09 11:35:49
Bleach 367 – YOUR ENEMY IS MY ENEMY2019/04/082019-04-08 18:27:12
Bleach 366 – The Revenger’s High2019/04/082019-04-08 18:23:12
Bleach 365 – Whose Side Are We On2019/04/082019-04-08 17:30:05
Bleach 364 – Grinning Revengers2019/04/082019-04-08 17:29:31
Bleach 363 – Superchunky from Hell2019/04/082019-04-08 17:28:55
Bleach 362 – Howling Wolves2019/04/082019-04-08 17:28:28
Bleach 361 – I Hate Loneliness, But It Loves Me2019/04/082019-04-08 17:16:10
Bleach 360 – Shock of the Queen2019/04/082019-04-08 15:51:37
Bleach 359 – The Frozen Obelisk2019/04/082019-04-08 15:51:17
Bleach 358 – King of the Clouds2019/04/082019-04-08 15:50:50
Bleach 357 – The Colossus of Fear2019/04/082019-04-08 15:49:39
Bleach 356 – Tyrant of Skulls2019/04/082019-04-08 15:49:13
Bleach 355 – Azul-Blood Splash2019/04/082019-04-08 15:40:59
Bleach 354 – The Heart2019/04/082019-04-08 15:40:27
Bleach 353 – The Ash2019/04/082019-04-08 15:40:16
Bleach 352 – The Lust 62019/04/082019-04-08 15:39:25
Bleach 351 – The Lust 52019/04/082019-04-08 15:37:06
Bleach 350 – The Lust 42019/04/082019-04-08 15:34:23
Bleach 349 – The Lust 32019/04/082019-04-08 15:34:04
Bleach 348 – The Lust 22019/04/082019-04-08 15:33:48
Bleach 347 – The Lust2019/04/082019-04-08 15:32:57
Bleach 346 – The Wrath2019/04/082019-04-08 15:30:13
Bleach 345 – The Sloth2019/04/082019-04-08 15:29:03
Bleach 344 – The Pride2019/04/082019-04-08 15:28:47
Bleach 343 – The Gluttony2019/04/082019-04-08 15:28:29
Bleach 342 – The Greed2019/04/082019-04-08 13:44:34
Bleach 341 – The Envy2019/04/082019-04-08 13:20:51
Bleach 340 – The Antagonizer2019/04/082019-04-08 13:19:03
Bleach 339 – The Deathbringer Numbers2019/04/082019-04-08 13:18:30
Bleach 338 – Fall Into My Inferno2019/04/082019-04-08 13:12:56
Bleach 337 – Hall In Your Inferno2019/04/082019-04-08 13:12:27
Bleach 336 – El Verdugo2019/04/082019-04-08 13:11:21
Bleach 335 – Chimera Chord2019/04/082019-04-08 13:09:24
Bleach 334 – Dregs of Hypnosis2019/04/082019-04-08 13:08:21
Bleach 333 – Ash and Salamander2019/04/082019-04-08 13:07:32
Bleach 332 – Fang & Sting2019/04/082019-04-08 13:05:52
Bleach 331 – Don’t Believe the Hide2019/04/082019-04-08 13:04:44
Bleach 330 – Crossing Swords2019/04/082019-04-08 13:03:19
Bleach 329 – Raging Rampage2019/04/082019-04-08 13:03:06
Bleach 328 – The Knuckle Debate2019/04/082019-04-08 13:02:28
Bleach 327 – Knock Down Monsters2019/04/082019-04-08 13:01:56
Bleach 326 – Knockdown Monster2019/04/082019-04-08 12:58:24
Bleach 325 – Fear for the Fight2019/04/082019-04-08 11:00:04
Bleach 324 – The Claws2019/04/082019-04-08 10:58:30
Bleach 323 – Gloomy, Ghastly and Full of Despair2019/04/082019-04-08 10:56:45
Bleach 322 – Oath Under The Rose2019/04/082019-04-08 10:56:12
Bleach 321 – Black Briers and Brambles2019/04/082019-04-08 10:55:35
Boruto Episode – 1012019/04/072019-04-07 19:36:57
One Piece Episode – 8792019/04/072019-04-07 19:36:44
Bleach 320 – Beauty is so Solitary2019/04/072019-04-07 17:25:44
Bleach 319 – Ants and Dragons2019/04/072019-04-07 17:24:54
Bleach 318 – Five Towers2019/04/072019-04-07 17:19:32
Bleach 317 – Six Heart Beat as One2019/04/072019-04-07 17:15:53
Bleach 316 – Swang the Edge Down2019/04/072019-04-07 17:09:36
Pembahasan One Piece 938: Zoro Pingsan?! Ada Apa dengan Zoro?2019/04/072019-04-07 13:31:50
One Piece 938.5 – April Mop2019/04/062019-04-06 13:35:53
Eden’s Zero – 038 Hantaman2019/04/042019-04-04 18:30:57
Eden’s Zero – 037 Shiki si Monster Raksasa2019/04/042019-04-04 18:07:58
Eden’s Zero – 036 Gia2019/04/042019-04-04 18:00:49
Eden’s Zero – 035 Binatang dan Gadis2019/04/042019-04-04 17:44:59
One Piece Episode – 8782019/04/022019-04-02 16:03:38
Boruto Episode – 1002019/04/022019-04-02 16:03:06
Pembahasan One Piece 937: Aksi Keren Zoro Menyelamatkan O-Toko2019/04/012019-04-01 13:15:43
One Piece 938 – Rahasia Dia2019/03/302019-03-30 14:50:53
Boruto Episode – 0992019/03/272019-03-27 16:06:05
One Piece Episode – 8772019/03/242019-03-24 14:04:38
One Piece 937 – Gyukimaru Diatas Jembatan Oihagi2019/03/222019-03-22 21:34:48
Boruto Episode – 0982019/03/202019-03-20 16:03:31
One Piece 936 – Turnamen Sumo Terhebat2019/03/202019-03-20 03:10:24
One Piece 747 – Eksekutif Tertinggi, Pica2019/03/192019-03-19 23:19:16
One Piece 746 – Para Bintang2019/03/192019-03-19 23:18:10
One Piece 745 – Sangkar Burung2019/03/192019-03-19 23:14:24
One Piece 744 – Jenderal Pasukan Revolusioner2019/03/192019-03-19 23:00:41
One Piece 742 – Aku Akan Selalu Didekatmu2019/03/192019-03-19 22:34:14
One Piece 743 – Guncangan Hebat di Dressrosa2019/03/192019-03-19 21:24:26
One Piece 741 – Usoland Sang Pembohong2019/03/192019-03-19 20:57:55
One Piece 740 – Tolong2019/03/192019-03-19 20:35:12
One Piece 739 – Kapten2019/03/192019-03-19 17:42:04
One Piece 738 – Pasukan Trevor2019/03/192019-03-19 17:29:57
One Piece 736 – Kepala Eksekutif Diamante2019/03/192019-03-19 17:28:39
One Piece 735 – Tujuan Fujitora2019/03/192019-03-19 17:27:54
One Piece 734 – Angin Puyuh2019/03/192019-03-19 17:26:08
One Piece 733 – Yang Diinginkan Mr. Soldier2019/03/192019-03-19 17:25:21
One Piece 732 – Dunia Bawah2019/03/192019-03-19 17:23:44
One Piece 731 – Operasi SOP Dressrosa2019/03/192019-03-19 17:22:58
One Piece 730 – 3 Kartu2019/03/192019-03-19 17:21:11
One Piece 729 – Shichibukai Doflamingo vs Shichibukai Law2019/03/192019-03-19 17:10:19
One Piece 728 – Tragedi2019/03/192019-03-19 17:07:57
One Piece 727 – Serbuan Para Pahlawan2019/03/192019-03-19 17:06:20
One Piece 726 – Keluarga Riku2019/03/192019-03-19 17:04:13
One Piece 725 – Wanita Tak Terkalahkan2019/03/192019-03-19 09:04:06
One Piece 724 – Rencana Law2019/03/192019-03-19 08:27:14
One Piece 723 – Perubahan Rencana2019/03/192019-03-19 08:26:05
One Piece 722 – Keturunan Kerajaan2019/03/192019-03-19 07:45:40
One Piece 721 – Rebecca Mr. Soldier2019/03/192019-03-19 07:44:05
One Piece 720 – Gladiator yang Dihukum2019/03/192019-03-19 07:24:16
One Piece 719 – Terbukalah Chinjao2019/03/192019-03-19 07:22:17
One Piece 721 – Rebecca dan Mr. Soldier2019/03/192019-03-19 07:03:22
One Piece 718 – Riku Royal Army di Padang Bunga2019/03/192019-03-19 07:03:01
One Piece 717 – Yang Dressrosa Lupakan2019/03/192019-03-19 07:02:06
One Piece 716 – Don Qinjiao2019/03/192019-03-19 06:58:21
One Piece 715 – Pertarungan Sengit di Blok C2019/03/182019-03-18 20:09:43
One Piece 714 – Lucy & Ucy2019/03/182019-03-18 19:31:54
One Piece 713 – Usoland2019/03/182019-03-18 19:30:00
One Piece 712 – Violet2019/03/182019-03-18 19:28:58
One Piece 711 – Petualangan di Negeri Kurcaci2019/03/182019-03-18 19:27:12
One Piece 710 – Menuju Green Bit2019/03/182019-03-18 19:22:21
One Piece 709 – King Punch2019/03/182019-03-18 18:10:57
One Piece 708 – Colloseum Para Pencuri2019/03/182019-03-18 18:05:54
One Piece 707 – Blok B2019/03/182019-03-18 18:03:05
One Piece 706 – Aku Tidak Akan Mentertawakanmu2019/03/182019-03-18 17:28:11
One Piece 705 – Maynard Si Pemburu2019/03/182019-03-18 17:26:56
One Piece 704 – Patung Kyros2019/03/182019-03-18 17:11:29
One Piece 703 – Ruang Tunggu2019/03/182019-03-18 17:09:00
One Piece 702 – Colloseum Corrida2019/03/182019-03-18 17:07:32
One Piece 701 – Petualangan Di Negeri Cinta2019/03/182019-03-18 17:06:29
One Piece 700 – Pergerakannya2019/03/182019-03-18 17:05:27
One Piece 699 – Surat Kabar Pagi2019/03/182019-03-18 17:04:44
One Piece 698 – Kemunculan Dolamingo2019/03/182019-03-18 17:03:55
One Piece 696 – Mencocokkan Tujuan2019/03/182019-03-18 17:01:31
One Piece 697 – Transaksi2019/03/182019-03-18 17:00:10
One Piece 695 – Serahkan Padaku2019/03/182019-03-18 16:56:13
One Piece 694 – Orang Yang Sangat Berbahaya2019/03/182019-03-18 16:50:33
One Piece 693 – Matilah Untukku2019/03/182019-03-18 16:04:19
One Piece 692 – Pembunuhan Dari Dressrosa2019/03/182019-03-18 15:58:58
One Piece 691 – Raja Negeri Kematian2019/03/182019-03-18 15:53:23
One Piece 690 – SAD2019/03/182019-03-18 13:35:46
One Piece 689 – Sebuah Pulau Yang Tak Tampak2019/03/182019-03-18 13:28:08
One Piece 688 – Mocha2019/03/182019-03-18 13:24:20
One Piece 687 – Binatang Buas2019/03/182019-03-18 13:21:43
One Piece 686 – Ruangan Biscuit Wanita2019/03/182019-03-18 13:02:32
One Piece 685 – Momonosuke, Itulah Namaku2019/03/182019-03-18 12:59:01
One Piece 684 – Hentikan, Vegapunk2019/03/182019-03-18 12:57:06
One Piece 683 – Gadis Seperti Es2019/03/182019-03-18 12:52:15
One Piece 682 – Mastermind2019/03/182019-03-18 12:47:37
One Piece 681 – Luffy vs Master2019/03/182019-03-18 12:36:04
One Piece 680 – Kapten Angkatan Laut G-52019/03/182019-03-18 12:25:14
One Piece 679 – Tekad G-52019/03/182019-03-18 09:10:39
One Piece 678 – Di Dalam Lab, Ruang Masuk Gedung2019/03/182019-03-18 09:05:57
One Piece 677 – Counter Hazard2019/03/182019-03-18 09:00:34
One Piece 676 – Senjata Pemusnah Massal2019/03/182019-03-18 05:26:40
One Piece 675 – Namanya Adalah Shinokuni2019/03/182019-03-18 05:13:22
One Piece 674 – Para Saksi2019/03/182019-03-18 05:09:02
One Piece 673 – Vergo dan Joker2019/03/182019-03-18 05:07:43
One Piece 672 – Namaku Adalah Kinemon2019/03/182019-03-18 05:06:25
One Piece 671 – Buah Gas-gas2019/03/182019-03-18 05:04:22
One Piece 670 – Badai Salju2019/03/182019-03-18 05:01:22
One Piece 669 – Memulai Strategi2019/03/182019-03-18 04:59:21
One Piece 668 – Sekutu Bajak Laut2019/03/182019-03-18 04:54:21
One Piece 667 – Cool Fight2019/03/182019-03-18 04:44:26
One Piece 666 – Yeti Cool Bersaudara2019/03/182019-03-18 04:42:42
One Piece 665 – Permen2019/03/182019-03-18 04:38:30
One Piece 664 – Master Caesar Clown2019/03/182019-03-18 04:37:11
One Piece 663 – CC2019/03/182019-03-18 04:35:45
One Piece 662 – Law vs Smoker2019/03/182019-03-18 04:33:52
One Piece 661 – Lautan Penjahat2019/03/182019-03-18 04:33:02
One Piece 660 – Royal Shichibukai Trafalgar Law2019/03/182019-03-18 04:31:51
One Piece 659 – Bagian Tubuh2019/03/182019-03-18 04:30:29
One Piece 658 – Ruang Biskuit2019/03/182019-03-18 04:27:22
One Piece 656 – Petualangan di Pulau Api2019/03/182019-03-18 04:17:00
One Piece 657 – Potongan Kepala2019/03/182019-03-18 04:16:59
One Piece 655 – Punk Hazard2019/03/182019-03-18 04:14:06
One Piece 654 – Gam (Shogun)2019/03/182019-03-18 04:04:50
One Piece 653 – Topi Pahlawan2019/03/182019-03-18 03:55:40
One Piece Episode – 8762019/03/172019-03-17 23:44:44
One Piece 652 – Firasat Buruk2019/03/172019-03-17 20:17:26
One Piece 651 – Suara dari Dunia Baru2019/03/172019-03-17 20:10:29
One Piece 650 – Suara dari Dunia Baru2019/03/172019-03-17 20:00:27
One Piece 650 – Dua Perubahan yang Perlu Kau Ketahui2019/03/172019-03-17 19:59:50
One Piece 649 – Tarian Para Ikan2019/03/172019-03-17 19:13:19
One Piece 648 – Jalan Menuju Matahari2019/03/172019-03-17 19:08:08
One Piece 647 – Hentikan Noah2019/03/172019-03-17 19:06:42
One Piece 646 – Katak2019/03/172019-03-17 18:57:11
One Piece 645 – Kematian Juga Adalah Balas Dendam2019/03/172019-03-17 18:55:01
One Piece 644 – Ke Nol2019/03/172019-03-17 18:49:48
One Piece 643 – Phantom2019/03/172019-03-17 18:43:40
One Piece 642 – Menghancurkan Harga Diri2019/03/172019-03-17 18:40:13
One Piece 641 – Kenapa Kau Ini2019/03/172019-03-17 18:37:40
One Piece 640 – Kebangkitan Pulau Manusia Ikan2019/03/172019-03-17 18:35:22
One Piece 639 – Lindungi Segalanya2019/03/172019-03-17 18:25:57
One Piece 638 – Nigehoshi2019/03/172019-03-17 18:24:05
One Piece 637 – Perahu Purba2019/03/172019-03-17 18:21:43
One Piece 636 – Jendral dari Masa Depan2019/03/172019-03-17 18:20:21
One Piece 635 – Aneh Sekali Aku Bisa Terbang2019/03/172019-03-17 18:19:27
One Piece 634 – 100.000 vs 102019/03/172019-03-17 18:17:28
One Piece 633 – Kawan atau Lawan2019/03/172019-03-17 17:58:12
One Piece 632 – Sudah Kuduga2019/03/172019-03-17 17:57:00
One Piece 631 – Alun-alun Gyoncorde2019/03/172019-03-17 17:55:46
One Piece 630 – Pukulan2019/03/172019-03-17 17:53:39
One Piece 629 – Mantan Shichibukai2019/03/172019-03-17 17:47:50
One Piece 628 – Pembersihan2019/03/172019-03-17 17:33:41
One Piece 627 – Berhutang Budi2019/03/172019-03-17 17:32:46
One Piece 626 – Persaudaraan 3 Anak Neptune2019/03/172019-03-17 17:26:48
One Piece 625 – Keinginan yang Tak Tersampaikan2019/03/172019-03-17 17:22:47
One Piece 624 – Ratu Otohime2019/03/172019-03-17 17:21:19
One Piece 623 – Fishman Tiger2019/03/172019-03-17 17:00:51
One Piece 622 – Bajak Laut Matahari2019/03/172019-03-17 16:58:25
One Piece 621 – Otohime dan Tiger2019/03/172019-03-17 16:57:10
One Piece 620 – Yang Merindukan Taman2019/03/172019-03-17 16:54:12
One Piece 619 – Hutan Laut2019/03/172019-03-17 16:49:39
One Piece 618 – Proposal2019/03/172019-03-17 16:49:01
One Piece 617 – Kejadian yang Mengejutkan di Coral Hill2019/03/172019-03-17 16:34:06
One Piece 616 – Perayaan Pembalasan Dendam2019/03/172019-03-17 16:10:36
One Piece 615 – Kutukan Mato-Mato2019/03/172019-03-17 16:05:53
One Piece 614 – Yang Sudah Terjadi, Terjadilah2019/03/172019-03-17 16:04:26
One Piece 613 – Putri Duyung Menara Koukaku2019/03/172019-03-17 15:54:33
One Piece 612 – Membawa Hiu yang Diselamatkan2019/03/172019-03-17 15:24:15
One Piece 611 – Hodi Jones2019/03/172019-03-17 15:23:46
One Piece 610 – Sang Peramal Madam Shirley2019/03/172019-03-17 15:20:59
One Piece 609 – Petualangan Di Pulau Manusia Ikan2019/03/162019-03-16 23:10:09
One Piece 608 – Surga Di Bawah Laut2019/03/162019-03-16 22:02:33
One Piece 607 – 10.000 Meter Di bawah Laut2019/03/162019-03-16 21:48:32
One Piece 606 – Petualangan di Laut Dalam2019/03/162019-03-16 21:41:55
One Piece 605 – Kraken dan Bajak Laut2019/03/162019-03-16 21:37:10
One Piece 604 – Menuju Laut Dalam2019/03/162019-03-16 21:34:32
One Piece 603 – Jaga Ini Dalam Hati Kalian2019/03/162019-03-16 21:31:35
One Piece 602 – Arahkan Kemudi2019/03/162019-03-16 21:12:27
One Piece 601 – Fajar Cerah Untuk Dunia Baru2019/03/162019-03-16 21:04:47
One Piece 599 – 9 Bajak Laut2019/03/162019-03-16 20:57:50
One Piece 600 – Pulau Permulaan Kembali2019/03/162019-03-16 20:57:48
One Piece 598 – 2 Tahun Kemudian2019/03/162019-03-16 20:50:54
One Piece 597 – 3D2Y2019/03/162019-03-16 14:17:49
One Piece 596 – Spektrum2019/03/162019-03-16 14:13:18
One Piece 595 – Sanji2019/03/162019-03-16 14:09:13
One Piece 585 – 5942019/03/162019-03-16 14:08:04
One Piece 574 – 5842019/03/162019-03-16 14:02:29
One Piece 563 – 5732019/03/162019-03-16 14:01:02
One Piece 551 – 5622019/03/162019-03-16 14:00:58
One Piece 542 – 5502019/03/162019-03-16 13:55:48
One Piece 533 – 5412019/03/162019-03-16 13:54:44
One Piece 523 – 5322019/03/162019-03-16 13:54:11
One Piece 513- 5222019/03/162019-03-16 13:46:06
One Piece 503 – 5122019/03/162019-03-16 13:43:33
One Piece 492 – 5022019/03/162019-03-16 13:42:22
One Piece 482 – 4912019/03/162019-03-16 13:40:59
One Piece 471 – 4812019/03/162019-03-16 13:39:03
One Piece 460 – 4702019/03/162019-03-16 13:34:17
One Piece 450 – 4592019/03/162019-03-16 13:33:43
One Piece 441 – 4492019/03/162019-03-16 13:29:30
One Piece 431 – 4402019/03/162019-03-16 13:27:38
One Piece 431 – 4402019/03/162019-03-16 11:18:10
One Piece 420 – 4302019/03/162019-03-16 11:15:35
One Piece 400 – 4092019/03/162019-03-16 11:11:31
One Piece 410 – 4192019/03/162019-03-16 11:11:30
One Piece 389 – 3992019/03/162019-03-16 09:42:12
One Piece 378 – 3882019/03/162019-03-16 09:34:44
Pembahasan One Piece 936: Haoshoku Haki Luffy Dilepas!!!2019/03/162019-03-16 07:47:36
One Piece 358 – 3672019/03/162019-03-16 06:25:59
One Piece 368 – 3772019/03/162019-03-16 06:25:13
One Piece 337 – 3462019/03/162019-03-16 06:01:13
One Piece 347 – 3572019/03/162019-03-16 06:00:44
One Piece 328 – 3362019/03/162019-03-16 06:00:38
One Piece 317 – 3272019/03/152019-03-15 19:58:23
One Piece 306 – 3162019/03/152019-03-15 19:55:33
One Piece 296 – 3052019/03/152019-03-15 19:41:22
One Piece 286 – 2952019/03/152019-03-15 15:10:13
One Piece 276 – 2852019/03/152019-03-15 14:56:51
One Piece 265 – 2752019/03/152019-03-15 14:37:16
One Piece 265 – 2752019/03/152019-03-15 14:15:09
One Piece 256 – 2642019/03/152019-03-15 14:11:20
One Piece 247 – 2552019/03/152019-03-15 13:46:01
One Piece 237 – 2462019/03/152019-03-15 13:21:31
One Piece 227 – 2362019/03/152019-03-15 13:17:13
One Piece 217 – 2262019/03/152019-03-15 13:14:15
One Piece 206 – 2162019/03/152019-03-15 13:05:11
One Piece 196 – 2052019/03/152019-03-15 13:04:15
One Piece 187 – 1952019/03/152019-03-15 11:44:07
One Piece 177 – 1862019/03/152019-03-15 11:41:56
One Piece 167 – 1762019/03/152019-03-15 11:40:21
One Piece 156 – 1662019/03/152019-03-15 11:39:17
One Piece 146 -1552019/03/152019-03-15 11:37:41
One Piece 137 – 1452019/03/142019-03-14 21:08:22
One Piece 127 – 1362019/03/142019-03-14 21:04:26
One Piece 118 – 1262019/03/142019-03-14 21:02:40
One Piece 109 – 1172019/03/142019-03-14 21:00:20
One Piece 100 – 1082019/03/142019-03-14 17:45:37
One Piece 091 – 992019/03/142019-03-14 17:25:19
One Piece 082 – 902019/03/142019-03-14 17:22:18
One Piece 072 – 812019/03/142019-03-14 17:18:41
One Piece 063 – 712019/03/142019-03-14 17:15:25
One Piece 054 – 622019/03/142019-03-14 16:59:31
One Piece 053 – Tiny Fish no. 12019/03/142019-03-14 16:59:08
One Piece 052 – Sumpah2019/03/142019-03-14 16:45:53
One Piece 051 – Roronoa Zoro Jatuh ke Laut2019/03/142019-03-14 16:43:51
One Piece 050 – Takdirku2019/03/142019-03-14 16:42:11
One Piece 049 – Badai2019/03/142019-03-14 16:40:36
One Piece 048 – Jangan Pergi ke Grand Line2019/03/142019-03-14 16:38:30
One Piece 047 – Don Krieg, Bajak Laut Besar2019/03/142019-03-14 16:37:27
One Piece 046 – Tamu Tak Diundang2019/03/142019-03-14 16:36:30
One Piece 045 – Sebelum Badai2019/03/142019-03-14 16:35:27
One Piece 044 – Tiga Koki2019/03/142019-03-14 16:34:10
One Piece 043 – Sanji2019/03/142019-03-14 15:30:28
One Piece 042 – Yosaku dan Joni2019/03/142019-03-14 15:28:21
One Piece 041 – Menuju Lautan2019/03/142019-03-14 15:25:48
One Piece 040 – Bajak Laut Usopp2019/03/142019-03-14 15:19:55
One Piece 039 – Bel Berdentang2019/03/142019-03-14 15:00:04
One Piece 038 – Bajak Laut2019/03/142019-03-14 14:56:17
One Piece 037 – Kuro Bajak Laut 100 Trik2019/03/142019-03-14 14:53:43
One Piece 036 – Pengejaran2019/03/142019-03-14 14:47:07
One Piece 035 – Neo Hill2019/03/142019-03-14 12:34:51
One Piece 034 – Si Pelayan Kurohadol2019/03/142019-03-14 12:34:10
One Piece 033 – Manusia Tanpa Suara2019/03/142019-03-14 12:33:22
One Piece 032 – Gawat2019/03/142019-03-14 12:32:41
One Piece 031 – Kebenaran2019/03/142019-03-14 12:31:53
One Piece 030 – Hebat2019/03/142019-03-14 12:21:09
One Piece 029 – Lereng2019/03/142019-03-14 12:20:25
One Piece 028 – Malam Bulan Sabit2019/03/142019-03-14 12:19:14
One Piece 027 – Penentuan2019/03/142019-03-14 12:16:50
One Piece 026 – Rencana Kapten Kuro2019/03/142019-03-14 12:15:29
One Piece 025 – 800 Kebohongan2019/03/142019-03-14 12:10:10
One Piece 024 – Sesuatu yang Tak Dapat Kau Sangkal2019/03/142019-03-14 12:04:18
One Piece 023 – Munculnya Kapten Usopp2019/03/142019-03-14 11:53:04
One Piece 022 – Kau Juga Hewan Langka & Mahal2019/03/132019-03-13 21:17:07
One Piece 021 – Desa2019/03/132019-03-13 21:16:12
One Piece 020 – Filosofi Pencuri2019/03/132019-03-13 20:18:34
Boruto Episode – 0972019/03/112019-03-11 09:07:21
One Piece 935 – Queen2019/03/082019-03-08 19:11:02
Eden’s Zero – 034 Menjalani Malam Ini2019/03/082019-03-08 05:14:52
Eden’s Zero – 033 Gadis Atas Bukit2019/03/082019-03-08 05:07:43
Eden’s Zero – 032 Jamilov si Pembunuh2019/03/082019-03-08 05:05:12
Eden’s Zero – 031 Orang-Orang Digitalis2019/03/082019-03-08 05:03:56
Eden’s Zero – 030 Planet Virtual Super2019/03/082019-03-08 05:03:39
Eden’s Zero – 029 Bukit Besi2019/03/082019-03-08 04:59:56
Eden’s Zero – 028 Teman Baru2019/03/082019-03-08 04:57:28
Eden’s Zero Manga2019/03/082019-03-08 04:43:20
Pembahasan One Piece 935: Luffy Bakal Dieksekusi Queen?!2019/03/072019-03-07 07:38:51
One Piece Episode – 8752019/03/042019-03-04 13:04:55
Boruto Episode – 0962019/03/042019-03-04 13:03:21
One Piece 019 – Buah Setan2019/03/022019-03-02 20:39:44
One Piece 018 – Bajak Laut Buggy2019/03/022019-03-02 20:37:49
One Piece 017 – Perbedaan Level2019/03/022019-03-02 20:36:34
One Piece 016 – Melawan Kru Bajak Laut Buggy2019/03/022019-03-02 20:35:46
One Piece 015 – Gong2019/03/022019-03-02 19:16:09
One Piece 014 – Nekat2019/03/022019-03-02 19:06:32
One Piece 013 – Harta Paling Berharga2019/03/022019-03-02 18:34:44
One Piece 012 – Anjing2019/03/022019-03-02 18:31:01
One Piece 011 – Melarikan Diri2019/03/022019-03-02 18:24:05
One Piece 010 – Situasi di Bar2019/03/022019-03-02 18:16:36
One Piece 009 – Melawan Buggy2019/03/022019-03-02 15:34:57
One Piece 008 – Nami2019/03/022019-03-02 15:33:08
One Piece 007 – Teman2019/03/022019-03-02 15:32:24
One Piece 006 – Kru Pertama2019/03/022019-03-02 15:31:32
One Piece 005 – Raja Bajak Laut dan Pendekar Pedang2019/03/022019-03-02 15:26:30
One Piece 004 – Morgan si Tangan Kapak2019/03/022019-03-02 14:33:15
One Piece 003 – Munculnya Zoro, Pemburu Bajak Laut2019/03/022019-03-02 14:09:11
One Piece 002 – Pemuda Bernama Luffy2019/03/022019-03-02 14:06:17
One Piece 001 – Romance Dawn2019/03/022019-03-02 11:36:46
Boruto 032 – Rasa Tanggung Jawab2019/03/012019-03-01 16:40:33
Naruto 690 – Ninja2019/02/282019-02-28 10:14:15
Naruto 689 – Dimensi Baru2019/02/282019-02-28 10:11:20
Naruto 688 – Sharingan2019/02/272019-02-27 22:10:09
Naruto 687 – Kau Pasti Bisa2019/02/272019-02-27 22:08:37
Naruto 686 – Mereka yang Pergi2019/02/272019-02-27 22:07:50
Naruto 685 – Semua yang Kupunya2019/02/272019-02-27 21:36:43
Naruto 684 – Harus Dibunuh2019/02/272019-02-27 21:35:15
Naruto 682 – Kuyakin Kau Tak Pernah Melihatnya2019/02/272019-02-27 21:00:06
Naruto 681 – Air Mata Kaguya2019/02/272019-02-27 20:43:30
Naruto 680 – Sekali Lagi2019/02/272019-02-27 20:26:45
Naruto 679 – Awal Segalanya2019/02/272019-02-27 20:09:44
Naruto 678 – Penyelamat Dunia2019/02/272019-02-27 20:09:05
Naruto 677 – Tsukyomi Tak Terbatas2019/02/272019-02-27 20:02:07
Naruto 676 – Mimpi Tak Terbatas2019/02/272019-02-27 19:58:18
Naruto 675 – Impian Saat Ini2019/02/272019-02-27 18:04:36
Naruto 674 – Rinnegan Sasuke2019/02/272019-02-27 18:00:19
Naruto 673 – Kamilah yang Akan2019/02/272019-02-27 17:56:08
Naruto 672 – Ngengat Malam2019/02/272019-02-27 17:52:06
Naruto 671 – Naruto dan Rikudo Sennin2019/02/272019-02-27 17:47:39
Naruto 670 – Awal Mula2019/02/272019-02-27 17:43:58
Naruto 669 – Hachimon Tonkou no Jin2019/02/272019-02-27 17:40:07
Naruto 668 – Awal Musim Semi Merah2019/02/272019-02-27 17:37:11
Naruto 667 – Berakhirnya Masa-Masa Muda2019/02/272019-02-27 17:28:28
Naruto 666 – Dua Mangekyou2019/02/272019-02-27 17:26:54
Naruto 665 – Aku yang Sekarang2019/02/272019-02-27 12:59:58
Naruto 664 – Karena Aku Seorang Ayah2019/02/272019-02-27 12:43:06
Naruto 663 – Sepenuhnya2019/02/272019-02-27 12:41:39
Naruto 662 – Akhir yang Sebenarnya2019/02/272019-02-27 12:39:33
Naruto 661 – Dunia yang Gagal2019/02/272019-02-27 12:25:04
Naruto 660 – Hati yang Tersembunyi2019/02/252019-02-25 11:41:59
Naruto 659 – Rinbo Hengoku2019/02/252019-02-25 11:41:57
Naruto 658 – Bijuu vs Madara2019/02/252019-02-25 11:41:55
Naruto 657 – Kembalinya Uchiha Madara2019/02/252019-02-25 11:40:57
Naruto 656 – Perpindahan2019/02/252019-02-25 11:40:32
Naruto 655 – Kebiasaan2019/02/252019-02-25 09:37:36
Naruto 654 – Aku Obito Uchiha2019/02/252019-02-25 09:29:58
Naruto 653 – Aku Mengawasimu2019/02/252019-02-25 09:29:16
Naruto 652 – Konflik Hati Naruto2019/02/252019-02-25 09:27:30
Naruto 651 – Yang Telah Terisi2019/02/252019-02-25 09:23:54
One Piece Episode – 8742019/02/242019-02-24 21:06:40
Boruto Episode – 0952019/02/242019-02-24 19:48:07
Naruto 650 – Aku Mau Tidur2019/02/232019-02-23 21:07:25
Naruto 649 – Kehendak Shinobi2019/02/232019-02-23 21:06:39
Naruto 648 – Impian Seorang Shinobi2019/02/232019-02-23 21:03:06
Naruto 647 – Penyesalan2019/02/232019-02-23 18:43:36
Naruto 646 – Pohon Dewa2019/02/232019-02-23 18:33:42
Naruto 645 – Dua Kekuatan2019/02/232019-02-23 18:26:07
Naruto 644 – Aku Tahu2019/02/232019-02-23 18:17:41
Naruto 643 – Dua Kepalan Tinju2019/02/232019-02-23 16:41:16
Naruto 642 – Menerobos2019/02/232019-02-23 16:36:46
Naruto 641 – Kalianlah Bintang Utamanya2019/02/232019-02-23 16:32:33
Naruto 640 – Akhirnya2019/02/232019-02-23 16:28:42
Naruto 639 – Serangan2019/02/232019-02-23 16:26:14
Naruto 638 – Obito Jinchuuriki Jyuubi2019/02/232019-02-23 16:23:07
Naruto 637 – Jinchuuriki Juubi2019/02/232019-02-23 16:19:32
Naruto 636 – Obito yang Sekarang2019/02/232019-02-23 16:16:04
Naruto 635 – Hembusan Angin Baru2019/02/222019-02-22 23:52:57
Naruto 634 – Tiga Jalan Buntu2019/02/222019-02-22 23:51:35
Naruto 633 – Melangkah Kedepan2019/02/222019-02-22 23:42:30
Naruto 632 – Ledakan2019/02/222019-02-22 23:40:18
Naruto 631 – Tim 72019/02/222019-02-22 23:38:32
Naruto 630 – Apa yang Dapat Mengisi Lubang Ini2019/02/222019-02-22 23:30:34
Naruto 629 – Lubang Angin2019/02/222019-02-22 23:28:21
Naruto 628 – Disini dan Selanjutnya2019/02/222019-02-22 23:26:23
Naruto 627 – Jawaban Sasuke2019/02/222019-02-22 21:08:50
Naruto 626 – Madara dan Hashirama 22019/02/222019-02-22 21:06:43
Naruto 625 – Mimpi yang Nyata2019/02/222019-02-22 20:29:05
Naruto 624 – Aiko2019/02/222019-02-22 20:25:10
Naruto 623 – Pandangan2019/02/222019-02-22 20:14:15
Naruto 622 – Kesisi Seberang2019/02/222019-02-22 20:12:23
Naruto 621 – Hashirama dan Madara2019/02/222019-02-22 20:07:27
Naruto 620 – Hashirama Senju2019/02/222019-02-22 20:05:01
Naruto 619 – Klan yang Dikuasai Kebencian2019/02/222019-02-22 20:02:04
Naruto 618 – Orang yang Tahu Segalanya2019/02/222019-02-22 19:51:18
Naruto 617 – Berputar dan Menghindar 22019/02/222019-02-22 19:39:34
Pembahasan One Piece 934: Luffy Akan Menghadapi Queen?!2019/02/222019-02-22 18:48:41
One Piece 934 – Bunga Hyougoro2019/02/222019-02-22 18:45:00
Naruto 616 – Berputar dan Bertahan2019/02/202019-02-20 09:53:18
Naruto 615 – Terhubung2019/02/202019-02-20 09:04:29
Naruto 614 – Padamu2019/02/202019-02-20 09:00:08
Naruto 613 – Pikiran2019/02/202019-02-20 08:58:58
Naruto 612 – Jutsu Aliansi Ninja2019/02/202019-02-20 08:55:26
Naruto 611 – Tiba2019/02/202019-02-20 08:52:43
Boruto Episode – 0942019/02/192019-02-19 23:42:09
One Piece Episode – 8732019/02/192019-02-19 23:39:28
Boruto Episode – 0932019/02/192019-02-19 23:36:11
Naruto 610 – Juubi2019/02/192019-02-19 23:19:57
Naruto 609 – Akhir2019/02/192019-02-19 22:56:59
Naruto 608 – Keputusan Kakashi2019/02/192019-02-19 22:36:01
Naruto 607 – Aku Tak Peduli2019/02/192019-02-19 22:22:21
Naruto 606 – Dunia Mimpi2019/02/192019-02-19 21:56:49
Naruto 605 – Neraka2019/02/192019-02-19 20:20:07
Naruto 604 – Bertemu Kembali2019/02/192019-02-19 20:17:28
Naruto 603 – Rehabilitasi2019/02/192019-02-19 20:14:09
Naruto 602 – Hidup2019/02/192019-02-19 20:13:55
Naruto 601 – Obito dan Madara2019/02/192019-02-19 20:02:49
Naruto 600 – Bagaimana Bisa Hidup Sampai Sekarang?2019/02/192019-02-19 20:01:07
Naruto 599 – Uchiha Obito2019/02/192019-02-19 19:58:52
Naruto 598 – Hancur Berkeping-keping2019/02/192019-02-19 19:57:30
Naruto 597 – Rahasia Ninjutsu2019/02/192019-02-19 18:31:44
Naruto 596 – Kakashi vs Madara2019/02/192019-02-19 18:28:51
Naruto 595 – Mempertaruhkan Segalanya2019/02/192019-02-19 17:13:09
Naruto 594 – Nenek Moyang2019/02/192019-02-19 17:10:56
Naruto 593 – Kebangkitan2019/02/192019-02-19 17:07:29
Naruto 592 – Kekuatan Ketiga2019/02/192019-02-19 17:06:09
Naruto 591 – Resiko2019/02/192019-02-19 17:04:41
Naruto 590 – Aku Akan Menyayangimu Selamanya2019/02/192019-02-19 17:01:43
Naruto 589 – Pelepasan Edo Tensei2019/02/192019-02-19 17:00:47
Naruto 588 – Beban Seorang Kage2019/02/192019-02-19 16:49:37
Naruto 587 – Jam 92019/02/192019-02-19 16:42:53
Naruto 586 – Izanami Aktif2019/02/192019-02-19 16:38:20
Naruto 585 – Jadi Diriku Sendiri2019/02/192019-02-19 16:34:04
Naruto 584 – Kabuto Yakushi2019/02/192019-02-19 16:33:03
Naruto 583 – Siapa Ini!?2019/02/192019-02-19 16:31:23
Naruto 582 – Tak Ada2019/02/192019-02-19 16:30:31
Naruto 581 – Konoha Kita2019/02/192019-02-19 16:29:15
Naruto 580 – Waktunya2019/02/192019-02-19 16:27:39
Naruto 579 – Ayo Bertarung Bersama2019/02/192019-02-19 16:26:01
Naruto 578 – Kelemahan Harapan2019/02/192019-02-19 16:24:06
Naruto 577 – Pedang Kebencian2019/02/192019-02-19 16:22:02
Naruto 576 – Petunjuk Dari Pertemuan Kembali2019/02/192019-02-19 16:17:31
Naruto 575 – Tekad Batu2019/02/192019-02-19 16:16:12
Naruto 574 – Tatapan Mata2019/02/192019-02-19 16:07:26
Naruto 573 – Jalan Menuju Cahaya2019/02/192019-02-19 16:05:43
Naruto 572 – 9 Nama2019/02/192019-02-19 16:04:03
Naruto 571 – Bijuu Mode2019/02/192019-02-19 16:01:50
Naruto 570 – Kurama2019/02/192019-02-19 16:01:02
Naruto 569 – Tunjukkan Semangatmu2019/02/192019-02-19 16:00:08
Naruto 568 – Yonbi Raja Kera2019/02/192019-02-19 15:54:58
Naruto 567 – Sasuke Pergi Berperang2019/02/192019-02-19 15:13:51
Naruto 566 – Mata dan Monster2019/02/192019-02-19 15:11:33
Naruto 565 – Jinchuuriki vs Jinchuuriki2019/02/192019-02-19 15:10:21
Naruto 564 – Bukan Siapapun2019/02/192019-02-19 15:09:27
Naruto 563 – Pertemuan Lima Kage2019/02/192019-02-19 15:08:20
Naruto 562 – Temukan Dirimu2019/02/192019-02-19 11:29:25
Naruto 561 – Kekuatan Dalam Sebuah Nama2019/02/192019-02-19 11:27:30
Naruto 560 – Uchiha Madara2019/02/192019-02-19 11:24:56
Naruto 559 – Bala Bantuan2019/02/192019-02-19 11:21:17
Naruto 558 – Harusnya Dikalahkan2019/02/192019-02-19 08:43:44
Naruto 557 – Jokey Boy2019/02/192019-02-19 08:40:53
Naruto 556 – Gaara vs Mizukage2019/02/192019-02-19 08:39:42
Naruto 555 – Kontradiksi2019/02/192019-02-19 08:37:44
Naruto 554 – Batas Rasen Shuriken2019/02/192019-02-19 08:33:58
Naruto 553 – Pertemuan di Pusat Pertempuran2019/02/192019-02-19 08:28:18
Naruto 552 – Syarat Menjadi Hokage2019/02/192019-02-19 08:25:34
Naruto 551 – Hentikan Nagato2019/02/192019-02-19 08:07:10
Naruto 550 – Koto Amatsukami2019/02/192019-02-19 08:05:59
Naruto 549 – Pertanyaan Itachi2019/02/192019-02-19 08:01:00
Naruto 548 – Naruto vs Itachi2019/02/192019-02-19 07:59:50
Naruto 547 – Kelayakan2019/02/192019-02-19 07:57:34
Naruto 546 – Masa Lalu vs Masa Sekarang2019/02/192019-02-19 07:54:49
Naruto 545 – Prajurit Abadi2019/02/192019-02-19 07:52:42
Naruto 544 – Dua Matahari2019/02/182019-02-18 23:23:07
Naruto 543 – Yang Terlupakan2019/02/182019-02-18 23:23:07
Naruto 542 – Rahasia Tim Terkuat2019/02/182019-02-18 13:26:33
Naruto 541 – Raikage vs Naruto2019/02/182019-02-18 13:24:36
Naruto 540 – Strategi Madara2019/02/182019-02-18 13:11:59
Naruto 539 – Malam Penuh Darah2019/02/182019-02-18 13:11:15
Naruto 538 – Pemeriksaan Kembali2019/02/182019-02-18 12:06:42
Naruto 537 – Malam Tiba2019/02/182019-02-18 11:49:03
Naruto 536 – Naruto Pergi Berperang2019/02/182019-02-18 11:46:26
Naruto 535 – Bujukan Iruka2019/02/182019-02-18 09:35:59
Naruto 534 – Selamat Tinggal Ino-Shika-Chou2019/02/182019-02-18 00:32:03
Naruto 533 – Sumpah2019/02/182019-02-18 00:08:10
Naruto 532 – Mifune Vs Danzou Kesimpulan2019/02/172019-02-17 22:45:45
Naruto 531 – Tim Asuma Berkumpul Kembali2019/02/172019-02-17 22:44:20
Naruto 530 – Tekat Chouji2019/02/172019-02-17 22:43:37
Naruto 529 – Ikatan Emas2019/02/172019-02-17 21:23:46
Naruto 528 – Lebih Dari Bodoh2019/02/172019-02-17 21:10:40
Naruto 527 – Kata Rahasia2019/02/172019-02-17 21:07:52
Naruto 526 – Divisi Darui Berperang Kemedan Tempur2019/02/172019-02-17 21:04:53
Naruto 525 – Kebangkitan Para Kage2019/02/172019-02-17 20:32:53
Naruto 524 – Sesuatu yang Ingin Kulindungi2019/02/172019-02-17 20:19:45
Naruto 523 – 7 Pendekar Pedang2019/02/172019-02-17 20:08:26
Naruto 522 – Aku Sudah Mati2019/02/162019-02-16 21:53:14
Naruto 521 – Pertarungan Pasukan Dimulai2019/02/162019-02-16 21:52:12
Naruto 520 – Rahasia Dibalik Edo Tensei2019/02/162019-02-16 21:48:30
Naruto 519 – Sasori2019/02/162019-02-16 21:29:52
Naruto 518 – Bentrokan Regu Penyergap2019/02/162019-02-16 21:27:36
Naruto 517 – Peperangan Omoi2019/02/162019-02-16 21:05:20
Naruto 516 – Pidato Gaara2019/02/162019-02-16 20:58:20
Naruto 515 – Dimulai Perang2019/02/162019-02-16 20:46:43
Naruto 514 – Rencana Kabuto2019/02/162019-02-16 20:22:18
Naruto 513 – Kabuto vs Tsuchikage2019/02/162019-02-16 19:44:48
Naruto 512 – Kebenaran Dibalik Zetsu2019/02/162019-02-16 19:23:55
Naruto 511 – Kita Semua Pulang2019/02/162019-02-16 19:03:24
Naruto 510 – Jurus Rahasia2019/02/162019-02-16 18:54:30
Naruto 509 – Jembatan Menuju Kedamaian2019/02/162019-02-16 18:43:42
Naruto 508 – Kematian yang Tepat2019/02/162019-02-16 14:48:13
Naruto 507 – Hidup Dalam Kebohongan2019/02/162019-02-16 13:54:40
Naruto 506 – Gai vs Kisame2019/02/162019-02-16 13:53:49
Naruto 505 – Mengeluarkan Chakra Kyuubi2019/02/162019-02-16 13:41:29
Naruto 504 – Terima Kasih2019/02/162019-02-16 13:38:06
Naruto 503 – Jurus Kematian Hokage ke-42019/02/162019-02-16 13:35:27
Naruto 502 – Hokage ke-4 Pergi Perang2019/02/162019-02-16 13:31:08
Naruto 501 – Kyuubi Menyerang2019/02/162019-02-16 13:20:24
Naruto 500 – Kelahiran Naruto2019/02/162019-02-16 13:13:24
Naruto 499 – Segel Baru2019/02/162019-02-16 13:08:30
Naruto 498 – Rambut Merah Sang Ibu2019/02/162019-02-16 13:06:14
Naruto 497 – Kyuubi vs Naruto2019/02/162019-02-16 13:05:03
Naruto 496 – Bertemu Kembali dengan Kyuubi2019/02/162019-02-16 13:03:57
Naruto 495 – Hancurkan Naruto Kegelapan2019/02/162019-02-16 08:04:25
Naruto 494 – Killerbee dan Motoi2019/02/162019-02-16 08:01:27
Naruto 493 – Naruto Kegelapan2019/02/162019-02-16 08:00:51
Naruto 492 – Sambutan2019/02/162019-02-16 07:54:37
Naruto 491 – Jinchuuriki Terkurung2019/02/162019-02-16 07:43:57
Naruto 490 – Kebenaran Tentang Kyuubi2019/02/162019-02-16 07:39:08
Naruto 489 – Diatas Jurang Perang Dunia2019/02/162019-02-16 07:38:21
Naruto 488 – Desa2019/02/162019-02-16 07:34:32
Naruto 487 – Pertarungan Dimulai2019/02/162019-02-16 07:32:15
Naruto 486 – Tinju2019/02/162019-02-16 07:31:03
Naruto 485 – Sangat Dekat, Namun Sangat Jauh2019/02/152019-02-15 16:58:00
Naruto 484 – Tim 72019/02/152019-02-15 16:57:26
Naruto 483 – Murid dan Guru Bertemu Kembali2019/02/152019-02-15 16:56:46
Naruto 482 – Terakhir Kali2019/02/152019-02-15 16:52:07
One Piece 933 – Pengampunan Samurai2019/02/152019-02-15 16:11:41
Naruto 481 – Kematian Danzou2019/02/152019-02-15 15:45:16
Naruto 480 – Pengorbanan2019/02/152019-02-15 15:43:15
Naruto 479 – Izanagi2019/02/152019-02-15 15:42:40
Naruto 478 – Susano’o Sempurna2019/02/152019-02-15 15:42:15
Naruto 477 – Jangan Sebut Nama Itachi2019/02/152019-02-15 15:41:32
Naruto 476 – Sasuke vs Danzou2019/02/152019-02-15 15:40:19
Naruto 475 – Kekuatan Madara yang Sebenarnya2019/02/152019-02-15 14:24:47
Naruto 474 – Bersiap Menjadi Hokage2019/02/152019-02-15 14:23:31
Naruto 473 – Saudara2019/02/152019-02-15 14:22:04
Naruto 472 – Pertarungan Menuju Kematian2019/02/152019-02-15 14:21:10
Naruto 471 – Hachibi Versi 22019/02/152019-02-15 14:20:36
Naruto 470 – Killerbee vs Kisame2019/02/152019-02-15 11:51:49
Naruto 469 – Pengakuan Sakura2019/02/152019-02-15 11:50:47
Naruto 468 – Hachibi dan Kyuubi2019/02/152019-02-15 11:46:53
Naruto 467 – Perang2019/02/152019-02-15 11:41:11
Naruto 466 – Pertarungan di Ruangan Tertutup2019/02/152019-02-15 11:35:54
Naruto 465 – Serangan di Tempat Pertemuan2019/02/152019-02-15 11:21:53
Naruto 464 – Kekuatan Kegelapan2019/02/152019-02-15 11:20:46
Naruto 463 – Sasuke vs Raikage2019/02/152019-02-15 11:19:59
Naruto 462 – Jalan Hidup Sasuke2019/02/152019-02-15 11:14:47
Naruto 461 – Kumogakure vs Elang2019/02/152019-02-15 11:14:05
Naruto 460 – Sasuke Terkepung2019/02/152019-02-15 11:09:24
Naruto 459 – Keputusan Sakura2019/02/152019-02-15 11:08:00
Naruto 458 – Pendapat Lima Kage2019/02/152019-02-15 11:06:55
Naruto 457 – Rapat Kage2019/02/152019-02-15 11:03:43
Naruto 456 – Naruto Berangkat2019/02/152019-02-15 11:02:57
Naruto 455 – Ikatan2019/02/152019-02-15 09:40:55
Naruto 454 – Kelima Kage2019/02/152019-02-15 09:40:31
Naruto 453 – Malam Menjelang2019/02/152019-02-15 09:38:39
Naruto 452 – Mengepung Danzou2019/02/152019-02-15 09:33:21
Naruto 4512019/02/152019-02-15 09:32:13
Naruto 450 – Desa yang Bergembira2019/02/152019-02-15 09:28:53
Naruto 449 – Bunga Harapan2019/02/152019-02-15 09:28:00
Naruto 448 – Kenang-Kenangan2019/02/152019-02-15 09:27:22
Naruto 447 – Keyakinan2019/02/152019-02-15 09:26:30
Naruto 446 – Aku Hanya Ingin Melindungi Mereka2019/02/152019-02-15 09:25:35
Naruto 445 – Diatas Dunia2019/02/152019-02-15 01:05:16
Naruto 444 – Jawaban2019/02/152019-02-15 01:04:32
Naruto 443 – Bertemu2019/02/152019-02-15 01:03:12
Naruto 442 – Pertarhan Terakhir2019/02/152019-02-15 01:02:27
Naruto 441 – Rasen Shuriken2019/02/152019-02-15 00:58:28
Naruto 440 – Berbincang dengan Yondaime2019/02/152019-02-15 00:31:33
[download-attachments container=”div” title=”” style=”table” display_icon=”0″ display_user=”0″]
Download WordPress Themes
Download Premium WordPress Themes Free
Download WordPress Themes
Download Best WordPress Themes Free Download
udemy paid course free download
download intex firmware
Download Best WordPress Themes Free Download
udemy free download
Donten ni Warau Manga
Dice Manga
bola3m
TINJAUAN IKHTISAR
Rating